Time;durP1;ratioP1;P1;durP2;ratioP2;P2;SDS_P1;SDS_P2;PMS_P1;PMS_P2;Temp;Humidity;BMP_temperature;BMP_pressure;BME280_temperature;BME280_humidity;BME280_pressure;Samples;Min_cycle;Max_cycle;Signal;HPM_P1;HPM_P2
2023/08/05 00:02:04;;;;;;;30.60;6.45;;;;;;;19.01;100.00;99694.72;5606927;31;33784;-72
2023/08/05 00:05:08;;;;;;;51.83;6.30;;;;;;;18.89;100.00;99669.75;5607232;31;33600;-67
2023/08/05 00:08:10;;;;;;;20.42;6.65;;;;;;;18.53;100.00;99614.47;5607128;31;33982;-69
2023/08/05 00:11:13;;;;;;;25.00;9.93;;;;;;;18.61;100.00;99537.03;5606855;31;33963;-70
2023/08/05 00:14:16;;;;;;;18.55;10.52;;;;;;;18.90;100.00;99406.13;5606838;31;34555;-72
2023/08/05 00:17:19;;;;;;;18.77;10.82;;;;;;;19.40;100.00;99284.19;5607081;31;33661;-71
2023/08/05 00:20:21;;;;;;;16.58;10.85;;;;;;;19.39;100.00;99321.03;5606776;31;34502;-71
2023/08/05 00:23:24;;;;;;;14.57;10.43;;;;;;;19.35;100.00;99308.34;5606469;31;33747;-77
2023/08/05 00:26:27;;;;;;;15.45;11.30;;;;;;;19.37;100.00;99323.16;5605808;31;34158;-78
2023/08/05 00:29:31;;;;;;;13.62;9.65;;;;;;;19.34;100.00;99339.78;5605627;31;33788;-74
2023/08/05 00:32:36;;;;;;;10.13;6.87;;;;;;;19.28;100.00;99332.72;5606777;31;33435;-74
2023/08/05 00:35:40;;;;;;;9.85;6.12;;;;;;;19.09;100.00;99350.22;5606413;31;33835;-73
2023/08/05 00:38:42;;;;;;;7.10;4.00;;;;;;;18.95;100.00;99357.00;5606696;31;33932;-74
2023/08/05 00:41:45;;;;;;;4.62;3.97;;;;;;;18.80;100.00;99330.72;5606501;31;33633;-73
2023/08/05 00:44:48;;;;;;;3.90;3.28;;;;;;;18.81;100.00;99329.66;5606252;31;34970;-75
2023/08/05 00:47:52;;;;;;;5.53;3.25;;;;;;;18.74;100.00;99333.56;5606430;31;33760;-74
2023/08/05 00:50:55;;;;;;;8.35;3.17;;;;;;;18.73;100.00;99374.94;5606637;31;34424;-73
2023/08/05 00:53:57;;;;;;;5.18;2.70;;;;;;;18.65;100.00;99357.34;5606344;31;34358;-71
2023/08/05 00:57:01;;;;;;;4.80;2.37;;;;;;;18.60;100.00;99328.53;5605296;31;33677;-73
2023/08/05 01:00:04;;;;;;;9.07;2.47;;;;;;;18.53;100.00;99294.84;5606055;31;34013;-71
2023/08/05 01:03:07;;;;;;;5.00;2.80;;;;;;;18.45;100.00;99300.59;5606078;31;33955;-73
2023/08/05 01:06:11;;;;;;;6.72;3.08;;;;;;;18.40;100.00;99354.22;5606185;31;33545;-73
2023/08/05 01:09:14;;;;;;;6.40;3.67;;;;;;;18.42;100.00;99411.19;5606039;31;33248;-72
2023/08/05 01:12:17;;;;;;;5.15;3.70;;;;;;;18.42;100.00;99317.22;5606367;31;34459;-73
2023/08/05 01:15:19;;;;;;;6.95;4.22;;;;;;;18.38;100.00;99308.00;5604988;31;33590;-72
2023/08/05 01:18:24;;;;;;;5.65;4.35;;;;;;;18.37;100.00;99290.28;5605810;31;34573;-73
2023/08/05 01:21:50;;;;;;;7.65;6.10;;;;;;;18.43;100.00;99327.72;5605833;31;32342;-73
2023/08/05 01:25:04;;;;;;;9.38;6.30;;;;;;;18.64;100.00;99331.53;5605697;31;34585;-74
2023/08/05 01:28:08;;;;;;;8.75;6.43;;;;;;;18.80;100.00;99311.09;5605995;31;33926;-72
2023/08/05 01:31:14;;;;;;;9.30;6.15;;;;;;;18.86;100.00;99281.38;5605495;31;34556;-74
2023/08/05 01:34:17;;;;;;;11.45;7.25;;;;;;;18.83;100.00;99257.66;5604667;31;33765;-73
2023/08/05 01:37:23;;;;;;;11.80;7.80;;;;;;;18.91;100.00;99251.06;5605582;31;34337;-73
2023/08/05 01:40:28;;;;;;;14.10;9.93;;;;;;;18.96;100.00;99249.25;5605864;31;34396;-76
2023/08/05 01:43:31;;;;;;;12.82;9.68;;;;;;;19.01;100.00;99230.50;5607960;31;35233;-74
2023/08/05 01:46:36;;;;;;;12.05;9.48;;;;;;;19.06;100.00;99257.44;5594717;31;32375;-73
2023/08/05 01:49:39;;;;;;;10.77;9.15;;;;;;;19.12;100.00;99261.03;5608218;31;34002;-75
2023/08/05 01:52:41;;;;;;;11.63;7.20;;;;;;;19.15;100.00;99384.19;5608260;31;33879;-75
2023/08/05 01:55:45;;;;;;;21.45;9.77;;;;;;;19.12;100.00;99389.25;5608181;31;33688;-72
2023/08/05 01:58:48;;;;;;;13.05;7.82;;;;;;;19.11;100.00;99294.34;5608083;31;33891;-74
2023/08/05 02:01:51;;;;;;;10.13;7.65;;;;;;;19.04;100.00;99248.00;5607960;31;33870;-75
2023/08/05 02:04:54;;;;;;;10.32;7.85;;;;;;;18.97;100.00;99237.44;5607979;31;33843;-74
2023/08/05 02:07:56;;;;;;;14.60;8.23;;;;;;;19.01;100.00;99218.94;5607990;31;33721;-76
2023/08/05 02:10:59;;;;;;;10.13;8.52;;;;;;;18.96;100.00;99218.88;5608291;31;33817;-75
2023/08/05 02:14:02;;;;;;;12.45;8.23;;;;;;;18.97;100.00;99209.75;5607979;31;34925;-75
2023/08/05 02:17:05;;;;;;;10.77;8.68;;;;;;;19.04;100.00;99221.13;5607905;31;33968;-75
2023/08/05 02:20:10;;;;;;;10.80;8.95;;;;;;;19.05;100.00;99237.00;5607789;31;34327;-76
2023/08/05 02:23:13;;;;;;;12.30;9.07;;;;;;;19.01;100.00;99232.38;5607742;31;33906;-76
2023/08/05 02:26:16;;;;;;;11.20;9.27;;;;;;;19.00;100.00;99225.38;5607749;31;33887;-76
2023/08/05 02:29:19;;;;;;;12.88;9.35;;;;;;;19.03;100.00;99222.97;5608052;31;33728;-75
2023/08/05 02:32:23;;;;;;;11.48;8.75;;;;;;;19.06;100.00;99241.31;5607603;31;34929;-75
2023/08/05 02:35:26;;;;;;;13.57;9.43;;;;;;;19.07;100.00;99220.62;5607724;31;34441;-74
2023/08/05 02:38:29;;;;;;;11.10;9.50;;;;;;;19.06;100.00;99181.38;5607657;31;34550;-73
2023/08/05 02:41:32;;;;;;;11.38;9.43;;;;;;;19.03;100.00;99190.72;5607634;31;34173;-72
2023/08/05 02:44:35;;;;;;;10.82;8.70;;;;;;;19.03;100.00;99176.47;5607817;31;33690;-73
2023/08/05 02:47:38;;;;;;;12.00;9.30;;;;;;;19.06;100.00;99158.00;5607629;31;33809;-73
2023/08/05 02:50:40;;;;;;;10.85;8.85;;;;;;;19.05;100.00;99177.03;5593686;31;33912;-72
2023/08/05 02:53:44;;;;;;;11.50;9.20;;;;;;;19.06;100.00;99198.31;5606432;31;34584;-73
2023/08/05 02:56:47;;;;;;;11.18;7.80;;;;;;;19.08;100.00;99219.53;5606691;31;33799;-72
2023/08/05 02:59:52;;;;;;;8.18;7.28;;;;;;;19.15;100.00;99227.44;5607477;31;33938;-73
2023/08/05 03:02:55;;;;;;;9.32;7.40;;;;;;;19.14;100.00;99237.38;5607310;31;33548;-72
2023/08/05 03:05:59;;;;;;;7.82;6.65;;;;;;;19.15;100.00;99208.59;5607428;31;33997;-72
2023/08/05 03:09:08;;;;;;;9.88;6.87;;;;;;;19.14;100.00;99191.66;5607469;31;33670;-72
2023/08/05 03:12:36;;;;;;;9.48;7.30;;;;;;;19.14;100.00;99180.09;5607270;31;34373;-72
2023/08/05 03:15:48;;;;;;;8.85;6.47;;;;;;;19.14;100.00;99206.97;5607359;31;33903;-71
2023/08/05 03:18:52;;;;;;;8.73;6.75;;;;;;;19.16;100.00;99229.88;5607378;31;33909;-70
2023/08/05 03:21:56;;;;;;;8.40;7.05;;;;;;;19.17;100.00;99234.16;5607330;31;34490;-70
2023/08/05 03:24:59;;;;;;;8.52;7.18;;;;;;;19.22;100.00;99260.31;5607294;31;34086;-70
2023/08/05 03:28:03;;;;;;;11.48;8.95;;;;;;;19.23;100.00;99324.59;5607368;31;33925;-72
2023/08/05 03:31:06;;;;;;;21.40;11.23;;;;;;;19.33;100.00;99318.53;5607230;31;33964;-76
2023/08/05 03:34:13;;;;;;;13.70;9.80;;;;;;;19.30;100.00;99310.97;5607085;31;34741;-73
2023/08/05 03:37:17;;;;;;;11.73;8.45;;;;;;;19.29;100.00;99269.00;5607245;31;34442;-73
2023/08/05 03:40:28;;;;;;;10.63;9.02;;;;;;;19.30;100.00;99208.78;5607187;31;35335;-73
2023/08/05 03:43:49;;;;;;;14.63;9.30;;;;;;;19.36;100.00;99235.47;5601187;31;33537;-72
2023/08/05 03:46:52;;;;;;;11.75;10.02;;;;;;;19.37;100.00;99263.97;5606334;31;34468;-72
2023/08/05 03:49:55;;;;;;;11.80;9.55;;;;;;;19.36;100.00;99308.09;5607151;31;33701;-73
2023/08/05 03:52:58;;;;;;;11.88;9.48;;;;;;;19.46;100.00;99321.69;5606090;31;33912;-71
2023/08/05 03:56:09;;;;;;;12.98;10.13;;;;;;;19.41;100.00;99304.66;5607324;31;34902;-72
2023/08/05 03:59:15;;;;;;;13.33;10.60;;;;;;;19.41;100.00;99265.09;5606486;31;33873;-72
2023/08/05 04:02:19;;;;;;;14.68;10.85;;;;;;;19.35;100.00;99238.41;5606914;31;34390;-72
2023/08/05 04:05:48;;;;;;;12.15;10.32;;;;;;;19.30;100.00;99227.59;5605563;31;34247;-72
2023/08/05 04:08:59;;;;;;;13.60;10.48;;;;;;;19.31;100.00;99250.75;5606279;31;33904;-72
2023/08/05 04:12:05;;;;;;;12.98;10.63;;;;;;;19.32;100.00;99261.22;5593414;31;34409;-72
2023/08/05 04:15:08;;;;;;;13.85;10.40;;;;;;;19.38;100.00;99260.22;5606814;31;34518;-72
2023/08/05 04:18:11;;;;;;;16.52;10.80;;;;;;;19.41;100.00;99262.41;5606744;31;33869;-72
2023/08/05 04:21:15;;;;;;;13.68;9.77;;;;;;;19.48;100.00;99262.25;5606616;31;34617;-72
2023/08/05 04:24:22;;;;;;;11.85;8.90;;;;;;;19.47;100.00;99253.37;5606631;31;35215;-72
2023/08/05 04:27:24;;;;;;;14.13;9.27;;;;;;;19.49;100.00;99245.87;5606659;31;33757;-72
2023/08/05 04:30:27;;;;;;;10.55;8.52;;;;;;;19.53;100.00;99251.53;5606891;31;34490;-74
2023/08/05 04:33:32;;;;;;;9.85;8.85;;;;;;;19.58;100.00;99258.84;5606665;31;34272;-72
2023/08/05 04:36:34;;;;;;;10.05;8.45;;;;;;;19.64;100.00;99258.66;5606444;31;33977;-72
2023/08/05 04:39:37;;;;;;;10.60;8.60;;;;;;;19.70;100.00;99244.22;5606457;31;34493;-72
2023/08/05 04:42:40;;;;;;;10.70;8.35;;;;;;;19.77;100.00;99241.28;5606315;31;33805;-72
2023/08/05 04:45:43;;;;;;;11.18;8.32;;;;;;;19.83;100.00;99241.09;5605366;31;34432;-73
2023/08/05 04:48:46;;;;;;;9.52;8.32;;;;;;;19.86;100.00;99232.50;5606240;31;34785;-73
2023/08/05 04:51:48;;;;;;;12.50;8.10;;;;;;;19.88;100.00;99237.63;5606218;31;34629;-74
2023/08/05 04:54:51;;;;;;;8.95;8.05;;;;;;;19.92;100.00;99242.25;5605337;31;33747;-74
2023/08/05 04:57:54;;;;;;;11.82;8.18;;;;;;;19.99;100.00;99241.22;5606220;31;34283;-74
2023/08/05 05:00:58;;;;;;;8.20;7.40;;;;;;;20.05;100.00;99234.78;5606088;31;34550;-74
2023/08/05 05:04:01;;;;;;;9.13;7.78;;;;;;;20.04;100.00;99238.59;5606064;31;33799;-74
2023/08/05 05:07:04;;;;;;;8.82;7.50;;;;;;;20.05;100.00;99256.34;5605905;31;34121;-74
2023/08/05 05:10:07;;;;;;;9.18;7.40;;;;;;;20.09;100.00;99244.00;5605095;31;34269;-72
2023/08/05 05:13:10;;;;;;;10.38;7.45;;;;;;;20.13;100.00;99242.41;5606245;31;34271;-74
2023/08/05 05:16:12;;;;;;;8.57;7.55;;;;;;;20.18;100.00;99229.81;5606942;31;34021;-74
2023/08/05 05:19:15;;;;;;;7.97;7.00;;;;;;;20.26;100.00;99244.66;5608458;31;33812;-75
2023/08/05 05:22:18;;;;;;;8.48;6.68;;;;;;;20.35;100.00;99245.84;5608379;31;34343;-76
2023/08/05 05:25:22;;;;;;;8.57;6.80;;;;;;;20.37;100.00;99233.75;5608033;31;33766;-75
2023/08/05 05:28:24;;;;;;;8.68;6.12;;;;;;;20.43;100.00;99234.56;5607382;31;33770;-74
2023/08/05 05:31:27;;;;;;;6.68;5.90;;;;;;;20.55;100.00;99213.66;5608498;31;33884;-75
2023/08/05 05:34:30;;;;;;;7.70;6.28;;;;;;;20.55;100.00;99199.34;5608341;31;33900;-76
2023/08/05 05:37:33;;;;;;;7.00;6.30;;;;;;;20.56;100.00;99206.38;5607999;31;34112;-76
2023/08/05 05:40:41;;;;;;;10.70;6.60;;;;;;;20.60;100.00;99205.59;5608470;31;33805;-77
2023/08/05 05:43:44;;;;;;;9.07;6.65;;;;;;;20.65;100.00;99212.88;5608054;31;34531;-76
2023/08/05 05:46:47;;;;;;;9.07;6.40;;;;;;;20.81;100.00;99214.59;5608133;31;33664;-76
2023/08/05 05:49:50;;;;;;;6.12;5.47;;;;;;;20.90;100.00;99228.38;5608097;31;33877;-77
2023/08/05 05:52:53;;;;;;;6.53;5.70;;;;;;;20.81;100.00;99217.28;5608069;31;33991;-76
2023/08/05 05:55:56;;;;;;;7.55;6.00;;;;;;;20.66;100.00;99217.22;5607171;31;33686;-77
2023/08/05 05:58:59;;;;;;;11.82;5.65;;;;;;;20.87;100.00;99212.72;5607839;31;34484;-78
2023/08/05 06:02:02;;;;;;;6.72;5.57;;;;;;;20.90;100.00;99209.50;5607920;31;33741;-78
2023/08/05 06:05:05;;;;;;;7.87;5.60;;;;;;;20.88;100.00;99220.53;5607397;31;35158;-78
2023/08/05 06:08:08;;;;;;;9.57;5.50;;;;;;;20.99;100.00;99224.91;5608800;31;33862;-79
2023/08/05 06:11:10;;;;;;;6.03;5.18;;;;;;;21.03;100.00;99225.19;5608234;31;34041;-79
2023/08/05 06:14:13;;;;;;;5.60;4.82;;;;;;;21.02;100.00;99232.47;5608999;31;34056;-77
2023/08/05 06:17:17;;;;;;;8.60;5.70;;;;;;;21.12;100.00;99224.41;5608463;31;33564;-78
2023/08/05 06:20:19;;;;;;;6.50;5.00;;;;;;;21.49;100.00;99226.19;5608920;31;33693;-80
2023/08/05 06:23:22;;;;;;;6.72;5.07;;;;;;;21.71;100.00;99224.06;5608207;31;34776;-81
2023/08/05 06:26:26;;;;;;;6.90;4.95;;;;;;;21.80;100.00;99219.75;5608773;31;33642;-82
2023/08/05 06:29:28;;;;;;;8.48;5.15;;;;;;;21.81;100.00;99220.56;5609352;31;33516;-81
2023/08/05 06:32:31;;;;;;;9.40;4.90;;;;;;;21.82;100.00;99216.78;5609431;31;34371;-81
2023/08/05 06:35:34;;;;;;;6.37;4.72;;;;;;;21.86;100.00;99229.47;5608864;31;34556;-81
2023/08/05 06:38:37;;;;;;;6.10;4.53;;;;;;;21.90;100.00;99233.25;5608502;31;33971;-82
2023/08/05 06:41:40;;;;;;;7.03;4.45;;;;;;;22.12;100.00;99235.72;5607486;31;33475;-79
2023/08/05 06:44:44;;;;;;;5.62;4.43;;;;;;;22.31;100.00;99238.69;5607777;31;33761;-80
2023/08/05 06:47:47;;;;;;;7.68;3.85;;;;;;;22.34;100.00;99235.44;5607245;31;34323;-78
2023/08/05 06:50:49;;;;;;;5.45;3.87;;;;;;;22.36;100.00;99225.16;5608191;31;33820;-78
2023/08/05 06:53:52;;;;;;;6.68;3.25;;;;;;;22.48;100.00;99220.28;5607241;31;33682;-80
2023/08/05 06:56:55;;;;;;;5.32;3.58;;;;;;;22.71;100.00;99218.88;5608074;31;33488;-80
2023/08/05 06:59:58;;;;;;;6.07;3.25;;;;;;;22.99;100.00;99223.69;5607748;31;35246;-80
2023/08/05 07:03:04;;;;;;;7.22;3.20;;;;;;;23.25;100.00;99236.00;5607383;31;33716;-80
2023/08/05 07:06:07;;;;;;;5.20;3.22;;;;;;;23.49;100.00;99228.03;5607109;31;34531;-77
2023/08/05 07:09:11;;;;;;;6.40;3.17;;;;;;;23.89;100.00;99224.25;5605368;31;34205;-77
2023/08/05 07:12:14;;;;;;;3.70;2.92;;;;;;;24.22;100.00;99222.66;5607142;31;33593;-79
2023/08/05 07:15:17;;;;;;;7.72;2.80;;;;;;;23.94;100.00;99212.56;5606607;31;33601;-78
2023/08/05 07:18:21;;;;;;;5.25;2.80;;;;;;;24.65;100.00;99221.66;5607094;31;34624;-77
2023/08/05 07:21:24;;;;;;;6.85;3.03;;;;;;;24.76;100.00;99218.84;5604971;31;33588;-76
2023/08/05 07:24:27;;;;;;;6.15;3.40;;;;;;;24.36;100.00;99223.59;5607088;31;33801;-78
2023/08/05 07:27:29;;;;;;;5.00;2.95;;;;;;;24.55;100.00;99226.38;5606805;31;33912;-76
2023/08/05 07:30:32;;;;;;;3.90;3.20;;;;;;;24.56;100.00;99225.28;5606931;31;33822;-75
2023/08/05 07:33:34;;;;;;;4.53;2.90;;;;;;;24.42;100.00;99219.75;5606477;31;34477;-75
2023/08/05 07:36:37;;;;;;;8.40;3.22;;;;;;;24.45;100.00;99224.59;5607080;31;33677;-75
2023/08/05 07:39:45;;;;;;;4.00;3.10;;;;;;;24.78;100.00;99222.09;5606722;31;33760;-75
2023/08/05 07:42:49;;;;;;;5.03;3.17;;;;;;;24.49;100.00;99228.38;5606942;31;33580;-75
2023/08/05 07:45:52;;;;;;;6.03;3.08;;;;;;;25.05;100.00;99228.56;5602051;31;146006;-72
2023/08/05 07:48:57;;;;;;;5.00;3.15;;;;;;;24.60;100.00;99226.31;5607275;31;33628;-72
2023/08/05 07:52:00;;;;;;;7.00;3.00;;;;;;;24.77;100.00;99223.19;5606719;31;34262;-74
2023/08/05 07:55:04;;;;;;;3.92;3.00;;;;;;;24.65;100.00;99229.81;5606783;31;34934;-72
2023/08/05 07:58:06;;;;;;;3.45;2.90;;;;;;;24.72;100.00;99221.34;5606898;31;33662;-74
2023/08/05 08:01:12;;;;;;;3.55;2.90;;;;;;;24.77;100.00;99223.19;5606528;31;34552;-71
2023/08/05 08:04:15;;;;;;;6.25;2.92;;;;;;;24.79;100.00;99235.34;5605850;31;33672;-72
2023/08/05 08:07:17;;;;;;;5.87;2.70;;;;;;;25.11;100.00;99234.75;5593399;31;33714;-72
2023/08/05 08:10:24;;;;;;;3.62;3.12;;;;;;;25.31;100.00;99241.81;5586865;31;33869;-71
2023/08/05 08:13:27;;;;;;;4.47;3.17;;;;;;;25.03;100.00;99251.66;5586837;31;33909;-71
2023/08/05 08:16:32;;;;;;;6.53;3.40;;;;;;;24.94;100.00;99243.34;5597796;31;33917;-71
2023/08/05 08:19:38;;;;;;;3.20;2.90;;;;;;;24.97;100.00;99240.06;5602252;31;33869;-72
2023/08/05 08:22:41;;;;;;;13.07;3.50;;;;;;;25.15;100.00;99240.38;5606054;31;34427;-72
2023/08/05 08:25:44;;;;;;;5.10;3.50;;;;;;;25.19;100.00;99239.50;5605438;31;34328;-72
2023/08/05 08:28:47;;;;;;;6.43;3.30;;;;;;;25.14;100.00;99228.72;5606401;31;33650;-72
2023/08/05 08:31:50;;;;;;;11.07;3.65;;;;;;;24.81;100.00;99232.34;5606104;31;34413;-72
2023/08/05 08:34:53;;;;;;;6.50;4.15;;;;;;;24.73;100.00;99238.41;5592365;31;33579;-71
2023/08/05 08:37:57;;;;;;;5.28;3.70;;;;;;;24.62;100.00;99243.94;5605943;31;34596;-71
2023/08/05 08:41:03;;;;;;;8.57;4.72;;;;;;;24.65;100.00;99245.25;5605137;31;34660;-71
2023/08/05 08:44:08;;;;;;;8.40;4.40;;;;;;;24.87;100.00;99247.50;5603377;31;34018;-71
2023/08/05 08:47:11;;;;;;;5.53;4.50;;;;;;;24.91;100.00;99265.62;5606083;31;33985;-71
2023/08/05 08:50:16;;;;;;;7.75;5.37;;;;;;;25.01;100.00;99270.94;5604831;31;33908;-71
2023/08/05 08:53:20;;;;;;;6.50;5.50;;;;;;;24.81;100.00;99278.47;5605529;31;33840;-71
2023/08/05 08:56:24;;;;;;;7.28;5.30;;;;;;;24.92;100.00;99272.69;5599791;31;33890;-71
2023/08/05 08:59:26;;;;;;;8.73;5.78;;;;;;;24.90;100.00;99272.16;5585944;31;33862;-71
2023/08/05 09:02:30;;;;;;;8.07;6.07;;;;;;;24.70;100.00;99277.75;5585843;31;33582;-71
2023/08/05 09:05:59;;;;;;;6.40;5.57;;;;;;;24.80;100.00;99271.41;5589885;31;33925;-71
2023/08/05 09:09:02;;;;;;;9.95;6.62;;;;;;;24.85;100.00;99276.78;5603222;31;33830;-71
2023/08/05 09:12:06;;;;;;;6.40;5.80;;;;;;;24.67;100.00;99273.72;5593965;31;34217;-71
2023/08/05 09:15:09;;;;;;;10.80;6.47;;;;;;;24.75;100.00;99283.13;5605511;31;33887;-71
2023/08/05 09:18:12;;;;;;;9.10;6.32;;;;;;;24.83;100.00;99271.66;5605729;31;33528;-71
2023/08/05 09:21:21;;;;;;;7.62;6.82;;;;;;;24.72;100.00;99274.78;5605372;31;34066;-70
2023/08/05 09:24:25;;;;;;;7.28;6.53;;;;;;;24.72;100.00;99282.91;5605038;31;33628;-70
2023/08/05 09:27:46;;;;;;;10.48;7.47;;;;;;;24.72;100.00;99267.44;5591403;31;33886;-70
2023/08/05 09:30:49;;;;;;;8.32;6.70;;;;;;;24.86;100.00;99256.72;5605573;31;33756;-71
2023/08/05 09:33:52;;;;;;;9.60;6.90;;;;;;;24.89;100.00;99245.31;5604833;31;33584;-71
2023/08/05 09:36:55;;;;;;;10.20;7.28;;;;;;;25.18;100.00;99254.19;5605513;31;34507;-70
2023/08/05 09:39:57;;;;;;;8.68;6.87;;;;;;;25.34;100.00;99254.78;5604901;31;34854;-70
2023/08/05 09:43:02;;;;;;;9.45;7.20;;;;;;;25.34;100.00;99247.47;5604764;31;34893;-72
2023/08/05 09:46:11;;;;;;;9.35;7.82;;;;;;;25.48;100.00;99247.53;5591204;31;33921;-70
2023/08/05 09:49:17;;;;;;;7.85;7.05;;;;;;;26.09;100.00;99235.78;5591714;31;34093;-71
2023/08/05 09:52:23;;;;;;;10.90;7.65;;;;;;;26.72;100.00;99242.28;5604747;31;33689;-71
2023/08/05 09:55:28;;;;;;;10.13;7.45;;;;;;;27.03;100.00;99228.09;5604240;31;33939;-71
2023/08/05 09:58:32;;;;;;;9.13;7.35;;;;;;;28.09;100.00;99231.97;5604839;31;34554;-71
2023/08/05 10:01:36;;;;;;;11.25;7.53;;;;;;;28.53;100.00;99235.78;5605458;31;34332;-71
2023/08/05 10:04:42;;;;;;;9.38;7.45;;;;;;;28.67;100.00;99231.03;5606223;31;34507;-71
2023/08/05 10:07:44;;;;;;;9.40;7.70;;;;;;;27.99;100.00;99229.50;5605669;31;33942;-71
2023/08/05 10:10:48;;;;;;;11.07;8.57;;;;;;;27.93;100.00;99240.84;5598383;31;34285;-70
2023/08/05 10:13:53;;;;;;;9.60;8.00;;;;;;;27.78;100.00;99243.94;5587913;31;34522;-70
2023/08/05 10:16:56;;;;;;;10.65;8.55;;;;;;;28.02;100.00;99247.16;5586659;31;33753;-70
2023/08/05 10:20:00;;;;;;;14.13;9.90;;;;;;;27.78;100.00;99244.75;5605421;31;34259;-70
2023/08/05 10:23:13;;;;;;;10.13;9.05;;;;;;;27.25;100.00;99244.53;5606003;31;33818;-70
2023/08/05 10:26:43;;;;;;;12.45;9.10;;;;;;;27.30;100.00;99246.34;5604419;31;34382;-72
2023/08/05 10:29:53;;;;;;;13.18;10.77;;;;;;;27.37;100.00;99239.34;5601346;31;33541;-70
2023/08/05 10:32:58;;;;;;;8.88;6.35;;;;;;;26.74;100.00;99248.25;5588130;31;33884;-70
2023/08/05 10:36:03;;;;;;;10.27;6.00;;;;;;;26.34;100.00;99251.69;5587342;31;34234;-70
2023/08/05 10:39:44;;;;;;;7.47;5.20;;;;;;;26.66;100.00;99237.25;5587426;31;33711;-70
2023/08/05 10:42:47;;;;;;;6.40;4.57;;;;;;;27.27;100.00;99231.41;5586827;31;33934;-71
2023/08/05 10:45:50;;;;;;;6.25;4.78;;;;;;;28.13;100.00;99228.69;5587309;31;34920;-69
2023/08/05 10:48:55;;;;;;;8.13;4.50;;;;;;;27.76;100.00;99238.78;5587536;31;34016;-69
2023/08/05 10:51:58;;;;;;;7.43;4.50;;;;;;;28.11;100.00;99237.16;5587882;31;33609;-70
2023/08/05 10:55:01;;;;;;;7.00;4.87;;;;;;;27.91;100.00;99232.97;5587573;31;33891;-70
2023/08/05 10:58:06;;;;;;;7.00;4.40;;;;;;;27.78;100.00;99231.13;5589984;31;33779;-70
2023/08/05 11:01:10;;;;;;;6.75;5.05;;;;;;;28.01;100.00;99232.72;5598041;31;33845;-70
2023/08/05 11:04:31;;;;;;;7.12;4.70;;;;;;;27.09;100.00;99226.91;5602459;31;33642;-71
2023/08/05 11:07:38;;;;;;;6.62;5.00;;;;;;;27.86;100.00;99235.81;5603120;31;33910;-69
2023/08/05 11:10:43;;;;;;;6.65;4.95;;;;;;;28.38;100.00;99219.81;5597197;31;33763;-70
2023/08/05 11:13:48;;;;;;;7.55;5.00;;;;;;;29.85;100.00;99216.37;5585912;31;33888;-69
2023/08/05 11:16:51;;;;;;;9.20;4.28;;;;;;;30.80;100.00;99227.91;5585930;31;34147;-68
2023/08/05 11:19:55;;;;;;;6.37;5.30;;;;;;;29.02;100.00;99239.37;5605541;31;33618;-69
2023/08/05 11:22:59;;;;;;;8.30;5.70;;;;;;;27.61;100.00;99229.03;5601211;31;33532;-69
2023/08/05 11:26:05;;;;;;;9.35;5.32;;;;;;;26.91;100.00;99227.81;5596314;31;33626;-69
2023/08/05 11:29:10;;;;;;;10.55;5.72;;;;;;;27.27;100.00;99225.97;5593289;31;33123;-70
2023/08/05 11:32:13;;;;;;;11.10;6.18;;;;;;;26.71;100.00;99232.53;5606921;31;34282;-69
2023/08/05 11:35:16;;;;;;;7.25;6.00;;;;;;;26.65;100.00;99233.72;5595078;31;34490;-69
2023/08/05 11:38:21;;;;;;;7.87;6.30;;;;;;;26.87;100.00;99232.25;5606356;31;34948;-69
2023/08/05 11:41:25;;;;;;;7.28;6.57;;;;;;;26.57;100.00;99241.78;5606524;31;33567;-69
2023/08/05 11:44:28;;;;;;;10.75;6.55;;;;;;;27.32;100.00;99235.94;5591660;31;34512;-69
2023/08/05 11:47:36;;;;;;;8.20;6.30;;;;;;;27.97;100.00;99239.91;5586981;31;34071;-70
2023/08/05 11:50:41;;;;;;;8.07;6.70;;;;;;;28.59;100.00;99242.72;5565477;31;33891;-68
2023/08/05 11:53:47;;;;;;;9.52;8.48;;;;;;;27.79;100.00;99235.44;5600149;31;33885;-69
2023/08/05 11:56:50;;;;;;;9.48;7.70;;;;;;;27.72;100.00;99229.63;5590400;31;33817;-68
2023/08/05 11:59:53;;;;;;;10.30;7.68;;;;;;;28.48;100.00;99233.19;5596105;31;33909;-68
2023/08/05 12:02:56;;;;;;;11.18;9.43;;;;;;;28.55;100.00;99232.75;5592744;31;34093;-69
2023/08/05 12:06:02;;;;;;;13.88;9.80;;;;;;;28.76;100.00;99239.28;5591788;31;34433;-69
2023/08/05 12:09:05;;;;;;;11.07;9.23;;;;;;;28.95;100.00;99239.84;5591545;31;35653;-68
2023/08/05 12:12:18;;;;;;;11.05;8.52;;;;;;;29.00;100.00;99239.69;5588387;31;33305;-69
2023/08/05 12:15:26;;;;;;;11.18;9.50;;;;;;;28.50;100.00;99228.25;5602744;31;34795;-70
2023/08/05 12:18:31;;;;;;;12.20;9.70;;;;;;;29.35;100.00;99224.22;5598949;31;34924;-69
2023/08/05 12:21:35;;;;;;;14.32;10.32;;;;;;;29.53;100.00;99223.13;5604093;31;33600;-69
2023/08/05 12:24:38;;;;;;;11.18;9.27;;;;;;;29.43;100.00;99209.78;5605832;31;34275;-69
2023/08/05 12:27:41;;;;;;;14.75;9.65;;;;;;;29.43;100.00;99209.78;5598347;31;33825;-69
2023/08/05 12:30:44;;;;;;;12.02;9.52;;;;;;;29.48;100.00;99211.56;5597803;31;35260;-69
2023/08/05 12:33:46;;;;;;;13.52;10.20;;;;;;;30.56;100.00;99211.28;5595675;31;33893;-69
2023/08/05 12:36:49;;;;;;;16.12;10.75;;;;;;;30.78;100.00;99210.22;5600578;31;33633;-69
2023/08/05 12:39:52;;;;;;;13.50;11.85;;;;;;;29.91;100.00;99212.38;5596092;31;34332;-69
2023/08/05 12:43:02;;;;;;;21.25;12.43;;;;;;;28.61;100.00;99221.38;5598291;31;34455;-69
2023/08/05 12:46:05;;;;;;;16.23;12.77;;;;;;;28.62;100.00;99203.06;5605649;31;32331;-70
2023/08/05 12:49:08;;;;;;;17.37;12.32;;;;;;;29.19;100.00;99193.78;5606151;31;34114;-69
2023/08/05 12:52:11;;;;;;;18.48;11.75;;;;;;;31.72;100.00;99189.66;5606133;31;34799;-69
2023/08/05 12:55:14;;;;;;;16.12;12.70;;;;;;;33.90;80.10;99181.47;5606230;31;33794;-69
2023/08/05 12:58:16;;;;;;;17.05;12.20;;;;;;;34.55;73.51;99189.50;5605858;31;33702;-70
2023/08/05 13:01:19;;;;;;;14.95;10.98;;;;;;;34.87;69.86;99188.34;5605881;31;34541;-70
2023/08/05 13:04:22;;;;;;;14.82;12.48;;;;;;;38.89;54.61;99178.56;5605873;31;33885;-70
2023/08/05 13:07:25;;;;;;;17.23;11.90;;;;;;;38.70;50.07;99176.03;5594627;31;33742;-70
2023/08/05 13:10:27;;;;;;;16.27;11.63;;;;;;;36.56;56.45;99176.44;5605714;31;34421;-69
2023/08/05 13:13:31;;;;;;;15.38;11.20;;;;;;;35.09;60.59;99181.38;5605658;31;34695;-69
2023/08/05 13:16:36;;;;;;;15.23;12.93;;;;;;;33.73;68.80;99159.00;5605831;31;34068;-69
2023/08/05 13:19:44;;;;;;;20.05;12.13;;;;;;;31.79;89.65;99152.31;5594696;31;33994;-68
2023/08/05 13:22:47;;;;;;;13.40;12.00;;;;;;;30.91;94.52;99154.41;5604549;31;34651;-69
2023/08/05 13:25:50;;;;;;;18.10;12.90;;;;;;;29.49;100.00;99147.56;5605429;31;33596;-69
2023/08/05 13:28:53;;;;;;;16.45;13.23;;;;;;;28.80;100.00;99145.56;5605381;31;34382;-69
2023/08/05 13:31:56;;;;;;;14.35;12.85;;;;;;;29.14;100.00;99142.06;5605389;31;33679;-68
2023/08/05 13:34:59;;;;;;;14.75;12.30;;;;;;;28.97;100.00;99131.13;5592432;31;34024;-69
2023/08/05 13:38:01;;;;;;;14.87;13.27;;;;;;;29.16;100.00;99112.50;5587450;31;33883;-70
2023/08/05 13:41:04;;;;;;;17.02;13.95;;;;;;;29.43;100.00;99105.97;5588545;31;34043;-69
2023/08/05 13:44:09;;;;;;;15.88;13.00;;;;;;;29.68;100.00;99110.56;5587804;31;33806;-72
2023/08/05 13:47:12;;;;;;;16.65;12.70;;;;;;;33.27;75.94;99127.38;5588024;31;33834;-69
2023/08/05 13:50:18;;;;;;;16.12;12.68;;;;;;;32.61;81.08;99131.22;5587552;31;33972;-69
2023/08/05 13:53:21;;;;;;;13.13;11.82;;;;;;;31.35;95.88;99139.31;5588020;31;33827;-69
2023/08/05 13:56:25;;;;;;;17.45;12.15;;;;;;;30.30;100.00;99147.59;5587949;31;34405;-70
2023/08/05 13:59:28;;;;;;;14.87;12.02;;;;;;;29.16;100.00;99150.75;5587775;31;34036;-71
2023/08/05 14:02:31;;;;;;;13.25;11.80;;;;;;;28.59;100.00;99166.31;5587677;31;33577;-69
2023/08/05 14:05:34;;;;;;;15.02;10.95;;;;;;;27.78;100.00;99162.16;5587967;31;34235;-69
2023/08/05 14:08:36;;;;;;;12.98;11.60;;;;;;;27.10;100.00;99153.09;5587745;31;33916;-69
2023/08/05 14:11:39;;;;;;;15.13;11.98;;;;;;;26.95;100.00;99160.78;5587154;31;33654;-69